createdAt,value
2017-11-13T00:00:20.473Z,993.05
2017-11-13T00:01:20.452Z,993.09
2017-11-13T00:02:20.439Z,993.12
2017-11-13T00:03:20.416Z,993.10
2017-11-13T00:04:20.413Z,993.13
2017-11-13T00:05:20.415Z,993.16
2017-11-13T00:06:20.367Z,993.16
2017-11-13T00:07:20.358Z,993.19
2017-11-13T00:08:20.667Z,993.20
2017-11-13T00:09:20.316Z,993.23
2017-11-13T00:10:20.300Z,993.21
2017-11-13T00:11:20.269Z,993.24
2017-11-13T00:12:20.263Z,993.27
2017-11-13T00:13:20.252Z,993.23
2017-11-13T00:14:20.272Z,993.25
2017-11-13T00:15:20.207Z,993.27
2017-11-13T00:16:20.181Z,993.29
2017-11-13T00:17:20.173Z,993.30
2017-11-13T00:18:20.150Z,993.28
2017-11-13T00:19:20.128Z,993.31
2017-11-13T00:20:20.175Z,993.28
2017-11-13T00:21:20.100Z,993.26
2017-11-13T00:22:20.083Z,993.21
2017-11-13T00:23:20.064Z,993.26
2017-11-13T00:24:20.048Z,993.29
2017-11-13T00:25:20.027Z,993.32
2017-11-13T00:26:20.158Z,993.29
2017-11-13T00:27:19.998Z,993.27
2017-11-13T00:28:19.990Z,993.34
2017-11-13T00:29:19.967Z,993.30
2017-11-13T00:30:19.960Z,993.32
2017-11-13T00:31:19.920Z,993.33
2017-11-13T00:32:20.047Z,993.35
2017-11-13T00:33:19.892Z,993.37
2017-11-13T00:34:19.864Z,993.41
2017-11-13T00:35:19.849Z,993.40
2017-11-13T00:36:19.830Z,993.40
2017-11-13T00:37:19.819Z,993.37
2017-11-13T00:38:19.934Z,993.44
2017-11-13T00:39:19.781Z,993.43
2017-11-13T00:40:19.768Z,993.46
2017-11-13T00:41:19.747Z,993.40
2017-11-13T00:42:19.718Z,993.44
2017-11-13T00:43:19.709Z,993.40
2017-11-13T00:44:19.721Z,993.46
2017-11-13T00:45:19.676Z,993.50
2017-11-13T00:46:19.650Z,993.47
2017-11-13T00:47:19.645Z,993.50
2017-11-13T00:48:19.621Z,993.50
2017-11-13T00:49:19.672Z,993.49
2017-11-13T00:50:19.586Z,993.54
2017-11-13T00:51:19.569Z,993.53
2017-11-13T00:52:19.547Z,993.52
2017-11-13T00:53:19.526Z,993.57
2017-11-13T00:54:19.512Z,993.56
2017-11-13T00:55:19.631Z,993.55
2017-11-13T00:56:19.463Z,993.54
2017-11-13T00:57:19.451Z,993.55
2017-11-13T00:58:19.439Z,993.56
2017-11-13T00:59:19.418Z,993.53
2017-11-13T01:00:19.400Z,993.39
2017-11-13T01:01:19.524Z,993.57
2017-11-13T01:02:19.360Z,993.55
2017-11-13T01:03:19.368Z,993.58
2017-11-13T01:04:19.337Z,993.62
2017-11-13T01:05:19.315Z,993.59
2017-11-13T01:06:19.291Z,993.63
2017-11-13T01:07:19.601Z,993.62
2017-11-13T01:08:19.271Z,993.67
2017-11-13T01:09:19.225Z,993.65
2017-11-13T01:10:19.209Z,993.70
2017-11-13T01:11:19.211Z,993.66
2017-11-13T01:12:19.172Z,993.69
2017-11-13T01:13:19.202Z,993.69
2017-11-13T01:14:19.153Z,993.72
2017-11-13T01:15:19.635Z,993.74
2017-11-13T01:16:19.108Z,993.80
2017-11-13T01:17:19.083Z,993.70
2017-11-13T01:18:19.079Z,993.78
2017-11-13T01:19:19.060Z,993.75
2017-11-13T01:20:19.052Z,993.81
2017-11-13T01:21:19.078Z,993.76
2017-11-13T01:22:19.002Z,993.83
2017-11-13T01:23:18.988Z,993.85
2017-11-13T01:24:18.959Z,993.87
2017-11-13T01:25:18.934Z,993.88
2017-11-13T01:26:18.934Z,993.90
2017-11-13T01:27:18.986Z,993.90
2017-11-13T01:28:18.897Z,993.92
2017-11-13T01:29:18.877Z,993.91
2017-11-13T01:30:18.847Z,993.97
2017-11-13T01:31:18.843Z,993.98
2017-11-13T01:32:18.865Z,993.93
2017-11-13T01:33:18.951Z,993.95
2017-11-13T01:34:18.775Z,993.90
2017-11-13T01:35:18.767Z,993.87
2017-11-13T01:36:18.749Z,993.91
2017-11-13T01:37:18.723Z,993.90
2017-11-13T01:38:18.723Z,993.91
2017-11-13T01:39:18.737Z,993.92
2017-11-13T01:40:18.672Z,993.91
2017-11-13T01:41:18.646Z,993.98
2017-11-13T01:42:18.633Z,993.94
2017-11-13T01:43:18.613Z,993.90
2017-11-13T01:44:18.601Z,993.97
2017-11-13T01:45:18.649Z,994.02
2017-11-13T01:46:18.586Z,994.01
2017-11-13T01:47:18.567Z,993.98
2017-11-13T01:48:18.533Z,993.99
2017-11-13T01:49:18.524Z,993.98
2017-11-13T01:50:18.494Z,994.02
2017-11-13T01:51:18.532Z,994.00
2017-11-13T01:52:18.463Z,993.99
2017-11-13T01:53:18.500Z,994.04
2017-11-13T01:54:18.421Z,993.99
2017-11-13T01:55:18.407Z,994.01
2017-11-13T01:56:18.400Z,994.04
2017-11-13T01:57:18.381Z,994.02
2017-11-13T01:58:18.343Z,994.07
2017-11-13T01:59:18.371Z,994.07
2017-11-13T02:00:18.305Z,994.08
2017-11-13T02:01:18.301Z,994.07
2017-11-13T02:02:18.317Z,994.11
2017-11-13T02:03:18.264Z,994.15
2017-11-13T02:04:18.245Z,994.14
2017-11-13T02:05:18.213Z,994.15
2017-11-13T02:06:18.228Z,994.20
2017-11-13T02:07:18.549Z,994.06
2017-11-13T02:08:18.168Z,994.26
2017-11-13T02:09:18.141Z,994.22
2017-11-13T02:10:18.124Z,994.22
2017-11-13T02:11:18.110Z,994.13
2017-11-13T02:12:18.106Z,994.30
2017-11-13T02:13:18.147Z,994.37
2017-11-13T02:14:18.049Z,994.40
2017-11-13T02:15:18.060Z,994.43
2017-11-13T02:16:18.030Z,994.40
2017-11-13T02:17:18.008Z,994.39
2017-11-13T02:18:17.998Z,994.43
2017-11-13T02:19:18.009Z,994.44
2017-11-13T02:20:17.962Z,994.45
2017-11-13T02:21:17.926Z,994.38
2017-11-13T02:22:17.911Z,994.44
2017-11-13T02:23:18.179Z,994.49
2017-11-13T02:24:17.877Z,994.47
2017-11-13T02:25:17.875Z,994.49
2017-11-13T02:26:17.858Z,994.49
2017-11-13T02:27:17.821Z,994.42
2017-11-13T02:28:17.800Z,994.54
2017-11-13T02:29:17.842Z,994.56
2017-11-13T02:30:17.778Z,994.52
2017-11-13T02:31:17.765Z,994.60
2017-11-13T02:32:17.725Z,994.57
2017-11-13T02:33:17.725Z,994.64
2017-11-13T02:34:17.702Z,994.62
2017-11-13T02:35:18.033Z,994.65
2017-11-13T02:36:17.652Z,994.62
2017-11-13T02:37:17.643Z,994.64
2017-11-13T02:38:17.630Z,994.69
2017-11-13T02:39:17.618Z,994.75
2017-11-13T02:40:17.593Z,994.72
2017-11-13T02:41:17.645Z,994.66
2017-11-13T02:42:17.570Z,994.65
2017-11-13T02:43:17.539Z,994.68
2017-11-13T02:44:17.513Z,994.61
2017-11-13T02:45:17.496Z,994.60
2017-11-13T02:46:17.484Z,994.62
2017-11-13T02:47:17.623Z,994.69
2017-11-13T02:48:17.458Z,994.73
2017-11-13T02:49:17.437Z,994.77
2017-11-13T02:50:17.413Z,994.76
2017-11-13T02:51:17.394Z,994.82
2017-11-13T02:52:17.372Z,994.81
2017-11-13T02:53:17.512Z,994.84
2017-11-13T02:54:17.354Z,994.86
2017-11-13T02:55:17.327Z,994.86
2017-11-13T02:56:17.301Z,994.90
2017-11-13T02:57:17.284Z,994.92
2017-11-13T02:58:17.265Z,994.96
2017-11-13T02:59:17.395Z,994.98
2017-11-13T03:00:17.237Z,994.99
2017-11-13T03:01:17.204Z,994.98
2017-11-13T03:02:17.192Z,995.04
2017-11-13T03:03:17.178Z,995.02
2017-11-13T03:04:17.157Z,995.01
2017-11-13T03:05:17.214Z,995.06
2017-11-13T03:06:17.122Z,995.05
2017-11-13T03:07:17.110Z,995.10
2017-11-13T03:08:17.101Z,995.13
2017-11-13T03:09:17.076Z,995.15
2017-11-13T03:10:17.049Z,995.20
2017-11-13T03:11:17.140Z,995.20
2017-11-13T03:12:17.021Z,995.25
2017-11-13T03:13:17.089Z,995.26
2017-11-13T03:14:16.978Z,995.31
2017-11-13T03:15:16.952Z,995.34
2017-11-13T03:16:16.959Z,995.34
2017-11-13T03:17:17.065Z,995.31
2017-11-13T03:18:16.899Z,995.38
2017-11-13T03:19:16.881Z,995.34
2017-11-13T03:20:16.872Z,995.35
2017-11-13T03:21:16.860Z,995.37
2017-11-13T03:22:16.840Z,995.37
2017-11-13T03:23:16.898Z,995.36
2017-11-13T03:24:16.811Z,995.41
2017-11-13T03:25:16.803Z,995.39
2017-11-13T03:26:16.764Z,995.46
2017-11-13T03:27:16.745Z,995.49
2017-11-13T03:28:16.725Z,995.54
2017-11-13T03:29:17.167Z,995.53
2017-11-13T03:30:16.686Z,995.53
2017-11-13T03:31:16.672Z,995.54
2017-11-13T03:32:16.679Z,995.56
2017-11-13T03:33:16.643Z,995.52
2017-11-13T03:34:16.622Z,995.60
2017-11-13T03:35:16.672Z,995.60
2017-11-13T03:36:16.575Z,995.61
2017-11-13T03:37:16.579Z,995.64
2017-11-13T03:38:16.552Z,995.68
2017-11-13T03:39:16.529Z,995.64
2017-11-13T03:40:16.522Z,995.73
2017-11-13T03:41:16.862Z,995.77
2017-11-13T03:42:16.469Z,995.73
2017-11-13T03:43:18.516Z,995.74
2017-11-13T03:44:16.450Z,995.78
2017-11-13T03:45:16.413Z,995.81
2017-11-13T03:46:16.409Z,995.78
2017-11-13T03:47:16.541Z,995.82
2017-11-13T03:48:16.369Z,995.82
2017-11-13T03:49:16.363Z,995.86
2017-11-13T03:50:16.331Z,995.91
2017-11-13T03:51:16.315Z,995.91
2017-11-13T03:52:16.304Z,995.96
2017-11-13T03:53:16.430Z,995.96
2017-11-13T03:54:16.270Z,995.93
2017-11-13T03:55:16.266Z,995.96
2017-11-13T03:56:16.229Z,995.97
2017-11-13T03:57:16.225Z,995.96
2017-11-13T03:58:16.184Z,996.02
2017-11-13T03:59:16.247Z,996.07
2017-11-13T04:00:16.152Z,996.05
2017-11-13T04:01:16.149Z,996.11
2017-11-13T04:02:16.134Z,996.08
2017-11-13T04:03:16.115Z,996.07
2017-11-13T04:04:16.095Z,996.13
2017-11-13T04:05:16.141Z,996.14
2017-11-13T04:06:16.066Z,996.11
2017-11-13T04:07:16.040Z,996.16
2017-11-13T04:08:16.029Z,996.21
2017-11-13T04:09:16.003Z,996.21
2017-11-13T04:10:15.984Z,996.19
2017-11-13T04:11:16.253Z,996.20
2017-11-13T04:12:15.933Z,996.17
2017-11-13T04:13:16.000Z,996.22
2017-11-13T04:14:15.933Z,996.24
2017-11-13T04:15:15.906Z,996.30
2017-11-13T04:16:15.873Z,996.32
2017-11-13T04:17:16.260Z,996.33
2017-11-13T04:18:15.847Z,996.38
2017-11-13T04:19:15.817Z,996.41
2017-11-13T04:20:15.797Z,996.42
2017-11-13T04:21:15.771Z,996.45
2017-11-13T04:22:15.757Z,996.47
2017-11-13T04:23:15.804Z,996.41
2017-11-13T04:24:15.745Z,996.50
2017-11-13T04:25:15.718Z,996.46
2017-11-13T04:26:15.765Z,996.51
2017-11-13T04:27:15.698Z,996.52
2017-11-13T04:28:15.672Z,996.52
2017-11-13T04:29:15.662Z,996.54
2017-11-13T04:30:15.627Z,996.53
2017-11-13T04:31:15.616Z,996.56
2017-11-13T04:32:16.031Z,996.65
2017-11-13T04:33:15.577Z,996.63
2017-11-13T04:34:15.586Z,996.65
2017-11-13T04:35:15.544Z,996.64
2017-11-13T04:36:15.520Z,996.64
2017-11-13T04:37:15.514Z,996.65
2017-11-13T04:38:15.549Z,996.71
2017-11-13T04:39:15.460Z,996.73
2017-11-13T04:40:15.440Z,996.67
2017-11-13T04:41:15.435Z,996.67
2017-11-13T04:42:15.436Z,996.61
2017-11-13T04:43:20.240Z,996.67
2017-11-13T04:44:15.450Z,996.67
2017-11-13T04:45:15.354Z,996.66
2017-11-13T04:46:15.346Z,996.64
2017-11-13T04:47:15.336Z,996.60
2017-11-13T04:48:15.314Z,996.67
2017-11-13T04:49:15.326Z,996.70
2017-11-13T04:50:15.299Z,996.73
2017-11-13T04:51:15.256Z,996.80
2017-11-13T04:52:15.236Z,996.82
2017-11-13T04:53:15.225Z,996.82
2017-11-13T04:54:15.208Z,996.85
2017-11-13T04:55:15.613Z,996.85
2017-11-13T04:56:15.175Z,996.93
2017-11-13T04:57:15.151Z,996.93
2017-11-13T04:58:15.127Z,996.93
2017-11-13T04:59:15.123Z,996.92
2017-11-13T05:00:15.388Z,996.91
2017-11-13T05:01:15.108Z,997.00
2017-11-13T05:02:15.208Z,996.92
2017-11-13T05:03:15.083Z,996.95
2017-11-13T05:04:15.203Z,996.96
2017-11-13T05:05:15.025Z,996.97
2017-11-13T05:06:14.986Z,997.00
2017-11-13T05:07:14.964Z,996.97
2017-11-13T05:08:15.000Z,996.98
2017-11-13T05:09:15.099Z,996.98
2017-11-13T05:10:15.017Z,996.98
2017-11-13T05:11:15.152Z,997.05
2017-11-13T05:12:14.874Z,997.06
2017-11-13T05:13:15.001Z,997.10
2017-11-13T05:14:14.845Z,997.14
2017-11-13T05:15:14.868Z,997.16
2017-11-13T05:16:14.830Z,997.16
2017-11-13T05:17:15.039Z,997.22
2017-11-13T05:18:14.844Z,997.21
2017-11-13T05:19:14.772Z,997.24
2017-11-13T05:20:14.741Z,997.27
2017-11-13T05:21:14.737Z,997.26
2017-11-13T05:22:14.699Z,997.31
2017-11-13T05:23:15.624Z,997.31
2017-11-13T05:24:14.681Z,997.34
2017-11-13T05:25:14.651Z,997.34
2017-11-13T05:26:14.656Z,997.33
2017-11-13T05:27:14.624Z,997.35
2017-11-13T05:28:14.619Z,997.38
2017-11-13T05:29:14.614Z,997.40
2017-11-13T05:30:14.676Z,997.41
2017-11-13T05:31:14.562Z,997.50
2017-11-13T05:32:14.608Z,997.52
2017-11-13T05:33:14.510Z,997.51
2017-11-13T05:34:14.500Z,997.54
2017-11-13T05:35:14.478Z,997.53
2017-11-13T05:36:14.485Z,997.58
2017-11-13T05:37:14.432Z,997.56
2017-11-13T05:38:14.572Z,997.60
2017-11-13T05:39:14.403Z,997.58
2017-11-13T05:40:14.457Z,997.59
2017-11-13T05:41:14.374Z,997.56
2017-11-13T05:42:14.357Z,997.60
2017-11-13T05:43:14.331Z,997.57
2017-11-13T05:44:14.373Z,997.63
2017-11-13T05:45:14.304Z,997.61
2017-11-13T05:46:14.276Z,997.67
2017-11-13T05:47:14.267Z,997.65
2017-11-13T05:48:14.274Z,997.60
2017-11-13T05:49:14.227Z,997.64
2017-11-13T05:50:14.279Z,997.65
2017-11-13T05:51:14.186Z,997.63
2017-11-13T05:52:14.203Z,997.65
2017-11-13T05:53:14.154Z,997.68
2017-11-13T05:54:14.218Z,997.67
2017-11-13T05:55:15.127Z,997.76
2017-11-13T05:56:14.183Z,997.79
2017-11-13T05:57:14.107Z,997.74
2017-11-13T05:58:14.074Z,997.83
2017-11-13T05:59:14.054Z,997.83
2017-11-13T06:00:14.025Z,997.79
2017-11-13T06:01:14.186Z,997.82
2017-11-13T06:02:14.154Z,997.86
2017-11-13T06:03:13.974Z,997.87
2017-11-13T06:04:13.954Z,997.92
2017-11-13T06:05:13.943Z,997.89
2017-11-13T06:06:13.910Z,997.88
2017-11-13T06:07:13.907Z,997.90
2017-11-13T06:08:13.966Z,997.89
2017-11-13T06:09:13.871Z,997.94
2017-11-13T06:10:14.612Z,997.95
2017-11-13T06:11:13.857Z,998.00
2017-11-13T06:12:13.827Z,997.99
2017-11-13T06:13:13.794Z,998.04
2017-11-13T06:14:13.831Z,998.02
2017-11-13T06:15:13.789Z,998.09
2017-11-13T06:16:13.740Z,998.12
2017-11-13T06:17:14.069Z,998.17
2017-11-13T06:18:13.727Z,998.16
2017-11-13T06:19:13.691Z,998.20
2017-11-13T06:20:14.716Z,998.15
2017-11-13T06:21:13.739Z,998.15
2017-11-13T06:22:13.666Z,998.19
2017-11-13T06:23:13.712Z,998.21
2017-11-13T06:24:13.627Z,998.21
2017-11-13T06:25:13.599Z,998.21
2017-11-13T06:26:13.561Z,998.22
2017-11-13T06:27:13.567Z,998.24
2017-11-13T06:28:13.714Z,998.28
2017-11-13T06:29:13.607Z,998.22
2017-11-13T06:30:13.540Z,998.27
2017-11-13T06:31:13.468Z,998.30
2017-11-13T06:32:13.468Z,998.29
2017-11-13T06:33:13.443Z,998.32
2017-11-13T06:34:13.437Z,998.35
2017-11-13T06:35:13.575Z,998.40
2017-11-13T06:36:13.417Z,998.44
2017-11-13T06:37:13.401Z,998.45
2017-11-13T06:38:13.359Z,998.46
2017-11-13T06:39:13.335Z,998.47
2017-11-13T06:40:13.427Z,998.50
2017-11-13T06:41:13.438Z,998.49
2017-11-13T06:42:13.339Z,998.55
2017-11-13T06:43:13.337Z,998.53
2017-11-13T06:44:13.300Z,998.54
2017-11-13T06:45:13.242Z,998.53
2017-11-13T06:46:13.253Z,998.52
2017-11-13T06:47:13.233Z,998.59
2017-11-13T06:48:13.199Z,998.61
2017-11-13T06:49:13.302Z,998.67
2017-11-13T06:50:13.172Z,998.68
2017-11-13T06:51:13.211Z,998.69
2017-11-13T06:52:13.110Z,998.70
2017-11-13T06:53:18.641Z,998.77
2017-11-13T06:54:13.059Z,998.77
2017-11-13T06:55:13.197Z,998.74
2017-11-13T06:56:13.048Z,998.77
2017-11-13T06:57:13.029Z,998.80
2017-11-13T06:58:13.008Z,998.81
2017-11-13T06:59:13.184Z,998.90
2017-11-13T07:00:12.953Z,998.96
2017-11-13T07:01:14.194Z,998.92
2017-11-13T07:02:12.932Z,998.94
2017-11-13T07:03:13.007Z,998.96
2017-11-13T07:04:12.982Z,999.01
2017-11-13T07:05:12.867Z,999.07
2017-11-13T07:06:13.630Z,999.07
2017-11-13T07:07:12.874Z,999.13
2017-11-13T07:08:12.828Z,999.15
2017-11-13T07:09:12.812Z,999.15
2017-11-13T07:10:12.922Z,999.13
2017-11-13T07:11:12.770Z,999.14
2017-11-13T07:12:13.680Z,999.11
2017-11-13T07:13:12.755Z,999.21
2017-11-13T07:14:12.716Z,999.17
2017-11-13T07:15:13.751Z,999.19
2017-11-13T07:16:12.824Z,999.20
2017-11-13T07:17:12.663Z,999.21
2017-11-13T07:18:12.945Z,999.22
2017-11-13T07:19:19.126Z,999.21
2017-11-13T07:20:12.624Z,999.25
2017-11-13T07:21:12.622Z,999.30
2017-11-13T07:22:12.719Z,999.31
2017-11-13T07:23:12.553Z,999.36
2017-11-13T07:24:12.543Z,999.40
2017-11-13T07:25:12.624Z,999.35
2017-11-13T07:26:12.502Z,999.37
2017-11-13T07:27:12.476Z,999.36
2017-11-13T07:28:12.491Z,999.40
2017-11-13T07:29:12.447Z,999.46
2017-11-13T07:30:12.428Z,999.44
2017-11-13T07:31:12.420Z,999.45
2017-11-13T07:32:12.401Z,999.48
2017-11-13T07:33:12.754Z,999.51
2017-11-13T07:34:13.136Z,999.53
2017-11-13T07:35:12.333Z,999.58
2017-11-13T07:36:12.347Z,999.55
2017-11-13T07:37:12.307Z,999.59
2017-11-13T07:38:12.283Z,999.61
2017-11-13T07:39:12.413Z,999.61
2017-11-13T07:40:12.250Z,999.65
2017-11-13T07:41:12.252Z,999.66
2017-11-13T07:42:13.225Z,999.69
2017-11-13T07:43:12.202Z,999.70
2017-11-13T07:44:12.200Z,999.73
2017-11-13T07:45:12.241Z,999.75
2017-11-13T07:46:12.149Z,999.75
2017-11-13T07:47:12.133Z,999.73
2017-11-13T07:48:12.105Z,999.75
2017-11-13T07:49:12.095Z,999.74
2017-11-13T07:50:12.115Z,999.78
2017-11-13T07:51:12.090Z,999.78
2017-11-13T07:52:12.048Z,999.77
2017-11-13T07:53:12.019Z,999.77
2017-11-13T07:54:11.994Z,999.79
2017-11-13T07:55:12.020Z,999.84
2017-11-13T07:56:11.983Z,999.87
2017-11-13T07:57:11.940Z,999.91
2017-11-13T07:58:12.021Z,999.94
2017-11-13T07:59:11.906Z,999.97
2017-11-13T08:00:12.072Z,999.98
2017-11-13T08:01:11.890Z,1000.00
2017-11-13T08:02:11.865Z,1000.03
2017-11-13T08:03:11.857Z,1000.04
2017-11-13T08:04:11.823Z,1000.00
2017-11-13T08:05:11.831Z,1000.04
2017-11-13T08:06:11.951Z,1000.08
2017-11-13T08:07:11.768Z,1000.07
2017-11-13T08:08:11.787Z,1000.09
2017-11-13T08:09:11.742Z,1000.06
2017-11-13T08:10:11.731Z,1000.11
2017-11-13T08:11:11.714Z,1000.09
2017-11-13T08:12:11.754Z,1000.09
2017-11-13T08:13:11.703Z,1000.11
2017-11-13T08:14:11.659Z,1000.12
2017-11-13T08:15:11.706Z,1000.13
2017-11-13T08:16:11.613Z,1000.15
2017-11-13T08:17:11.598Z,1000.17
2017-11-13T08:18:11.648Z,1000.20
2017-11-13T08:19:11.571Z,1000.26
2017-11-13T08:20:11.541Z,1000.31
2017-11-13T08:21:11.537Z,1000.31
2017-11-13T08:22:11.540Z,1000.34
2017-11-13T08:23:11.503Z,1000.36
2017-11-13T08:24:11.563Z,1000.36
2017-11-13T08:25:11.471Z,1000.42
2017-11-13T08:26:11.447Z,1000.39
2017-11-13T08:27:11.423Z,1000.40
2017-11-13T08:28:13.134Z,1000.41
2017-11-13T08:29:11.398Z,1000.42
2017-11-13T08:30:11.505Z,1000.37
2017-11-13T08:31:11.362Z,1000.46
2017-11-13T08:32:11.330Z,1000.47
2017-11-13T08:33:11.333Z,1000.50
2017-11-13T08:34:11.312Z,1000.55
2017-11-13T08:35:11.308Z,1000.57
2017-11-13T08:36:11.353Z,1000.63
2017-11-13T08:37:11.255Z,1000.64
2017-11-13T08:38:11.243Z,1000.65
2017-11-13T08:39:11.212Z,1000.71
2017-11-13T08:40:11.217Z,1000.68
2017-11-13T08:41:11.312Z,1000.71
2017-11-13T08:42:11.347Z,1000.69
2017-11-13T08:43:11.171Z,1000.68
2017-11-13T08:44:11.140Z,1000.67
2017-11-13T08:45:11.110Z,1000.69
2017-11-13T08:46:11.076Z,1000.71
2017-11-13T08:47:11.083Z,1000.72
2017-11-13T08:48:11.133Z,1000.73
2017-11-13T08:49:11.034Z,1000.78
2017-11-13T08:50:11.016Z,1000.76
2017-11-13T08:51:10.998Z,1000.76
2017-11-13T08:52:10.981Z,1000.75
2017-11-13T08:53:11.028Z,1000.78
2017-11-13T08:54:10.978Z,1000.76
2017-11-13T08:55:10.941Z,1000.74
2017-11-13T08:56:10.923Z,1000.75
2017-11-13T08:57:11.179Z,1000.72
2017-11-13T08:58:10.885Z,1000.71
2017-11-13T08:59:10.878Z,1000.75
2017-11-13T09:00:10.861Z,1000.76
2017-11-13T09:01:10.888Z,1000.75
2017-11-13T09:02:10.800Z,1000.73
2017-11-13T09:03:10.964Z,1000.80
2017-11-13T09:04:10.812Z,1000.79
2017-11-13T09:05:10.765Z,1000.88
2017-11-13T09:06:10.891Z,1000.87
2017-11-13T09:07:10.712Z,1000.95
2017-11-13T09:08:10.707Z,1000.94
2017-11-13T09:09:10.694Z,1000.99
2017-11-13T09:10:10.680Z,1000.98
2017-11-13T09:11:11.668Z,1001.02
2017-11-13T09:12:10.681Z,1001.02
2017-11-13T09:13:10.622Z,1000.99
2017-11-13T09:14:10.589Z,1001.04
2017-11-13T09:15:10.611Z,1001.08
2017-11-13T09:16:10.568Z,1001.05
2017-11-13T09:17:10.566Z,1001.05
2017-11-13T09:18:10.596Z,1001.05
2017-11-13T09:19:10.521Z,1001.11
2017-11-13T09:20:10.496Z,1001.09
2017-11-13T09:21:10.493Z,1001.13
2017-11-13T09:22:10.469Z,1001.06
2017-11-13T09:23:10.450Z,1001.18
2017-11-13T09:24:10.465Z,1001.15
2017-11-13T09:25:10.405Z,1001.15
2017-11-13T09:26:10.400Z,1001.22
2017-11-13T09:27:10.379Z,1001.24
2017-11-13T09:28:11.642Z,1001.22
2017-11-13T09:29:10.340Z,1001.27
2017-11-13T09:30:10.333Z,1001.31
2017-11-13T09:31:10.308Z,1001.27
2017-11-13T09:32:10.289Z,1001.27
2017-11-13T09:33:10.277Z,1001.33
2017-11-13T09:34:10.353Z,1001.31
2017-11-13T09:35:10.237Z,1001.37
2017-11-13T09:36:10.220Z,1001.42
2017-11-13T09:37:10.222Z,1001.41
2017-11-13T09:38:10.187Z,1001.38
2017-11-13T09:39:10.195Z,1001.40
2017-11-13T09:40:10.183Z,1001.41
2017-11-13T09:41:10.138Z,1001.44
2017-11-13T09:42:10.123Z,1001.45
2017-11-13T09:43:10.323Z,1001.43
2017-11-13T09:44:10.167Z,1001.44
2017-11-13T09:45:10.071Z,1001.46
2017-11-13T09:46:10.055Z,1001.48
2017-11-13T09:47:10.045Z,1001.47
2017-11-13T09:48:10.038Z,1001.48
2017-11-13T09:49:09.994Z,1001.48
2017-11-13T09:50:10.135Z,1001.43
2017-11-13T09:51:10.062Z,1001.47
2017-11-13T09:52:09.953Z,1001.46
2017-11-13T09:53:09.922Z,1001.52
2017-11-13T09:54:09.899Z,1001.52
2017-11-13T09:55:09.891Z,1001.49
2017-11-13T09:56:09.927Z,1001.54
2017-11-13T09:57:09.860Z,1001.55
2017-11-13T09:58:09.835Z,1001.58
2017-11-13T09:59:09.927Z,1001.54
2017-11-13T10:00:09.802Z,1001.56
2017-11-13T10:01:09.799Z,1001.59
2017-11-13T10:02:10.639Z,1001.61
2017-11-13T10:03:09.769Z,1001.62
2017-11-13T10:04:09.757Z,1001.64
2017-11-13T10:05:09.854Z,1001.63
2017-11-13T10:06:09.714Z,1001.61
2017-11-13T10:07:09.682Z,1001.71
2017-11-13T10:08:09.712Z,1001.68
2017-11-13T10:09:09.664Z,1001.68
2017-11-13T10:10:09.629Z,1001.74
2017-11-13T10:11:09.651Z,1001.76
2017-11-13T10:12:09.598Z,1001.73
2017-11-13T10:13:09.594Z,1001.74
2017-11-13T10:14:10.164Z,1001.71
2017-11-13T10:15:09.560Z,1001.70
2017-11-13T10:16:09.529Z,1001.71
2017-11-13T10:17:09.522Z,1001.75
2017-11-13T10:18:09.637Z,1001.78
2017-11-13T10:19:09.524Z,1001.75
2017-11-13T10:20:09.872Z,1001.76
2017-11-13T10:21:09.454Z,1001.75
2017-11-13T10:22:09.443Z,1001.77
2017-11-13T10:23:11.151Z,1001.87
2017-11-13T10:24:10.135Z,1001.86
2017-11-13T10:25:09.391Z,1001.93
2017-11-13T10:26:09.520Z,1001.88
2017-11-13T10:27:10.390Z,1001.92
2017-11-13T10:28:09.338Z,1001.88
2017-11-13T10:29:09.333Z,1001.94
2017-11-13T10:30:09.314Z,1001.95
2017-11-13T10:31:09.369Z,1001.90
2017-11-13T10:32:09.347Z,1001.85
2017-11-13T10:33:09.243Z,1001.91
2017-11-13T10:34:09.274Z,1001.93
2017-11-13T10:35:09.227Z,1001.92
2017-11-13T10:36:09.195Z,1001.94
2017-11-13T10:37:09.182Z,1001.94
2017-11-13T10:38:09.207Z,1001.96
2017-11-13T10:39:09.150Z,1001.95
2017-11-13T10:40:09.151Z,1001.99
2017-11-13T10:41:09.166Z,1002.00
2017-11-13T10:42:09.170Z,1002.00
2017-11-13T10:43:09.088Z,1001.99
2017-11-13T10:44:09.089Z,1002.01
2017-11-13T10:45:22.021Z,1002.04
2017-11-13T10:46:09.043Z,1002.07
2017-11-13T10:47:09.018Z,1002.04
2017-11-13T10:48:09.160Z,1002.07
2017-11-13T10:49:08.981Z,1002.12
2017-11-13T10:50:09.073Z,1002.13
2017-11-13T10:51:08.968Z,1002.12
2017-11-13T10:52:08.934Z,1002.16
2017-11-13T10:53:09.155Z,1002.21
2017-11-13T10:54:09.123Z,1002.22
2017-11-13T10:55:08.877Z,1002.26
2017-11-13T10:56:09.661Z,1002.20
2017-11-13T11:14:51.066Z,1002.34
2017-11-13T11:15:50.596Z,1002.36
2017-11-13T11:16:50.562Z,1002.35
2017-11-13T11:17:57.584Z,1002.31
2017-11-13T11:34:34.153Z,1002.29
2017-11-13T11:35:33.827Z,1002.26
2017-11-13T11:36:33.947Z,1002.29
2017-11-13T12:55:36.010Z,1003.04
2017-11-13T12:56:32.385Z,1003.05
2017-11-13T13:13:15.635Z,1002.97
2017-11-13T13:13:51.249Z,1003.03
2017-11-13T13:14:48.569Z,1003.10
2017-11-13T13:15:48.052Z,1003.11
2017-11-13T13:16:48.134Z,1003.05
2017-11-13T13:17:48.321Z,1002.98
2017-11-13T13:18:49.581Z,1003.06
2017-11-13T13:19:48.029Z,1003.08
2017-11-13T13:20:48.020Z,1003.02
2017-11-13T13:21:48.111Z,1003.06
2017-11-13T13:22:48.131Z,1003.04
2017-11-13T13:23:48.062Z,1003.10
2017-11-13T13:24:48.472Z,1003.14
2017-11-13T13:25:48.108Z,1003.10
2017-11-13T13:26:47.835Z,1003.03
2017-11-13T13:27:47.958Z,1003.10
2017-11-13T13:28:47.982Z,1003.17
2017-11-13T13:29:48.062Z,1003.24
2017-11-13T13:30:48.268Z,1003.18
2017-11-13T13:31:47.855Z,1003.16
2017-11-13T13:32:48.665Z,1003.18
2017-11-13T13:33:47.841Z,1003.11
2017-11-13T13:34:48.738Z,1003.19
2017-11-13T13:35:47.951Z,1003.18
2017-11-13T13:36:48.569Z,1003.13
2017-11-13T13:37:49.642Z,1003.12
2017-11-13T13:38:49.062Z,1003.11
2017-11-13T13:39:47.772Z,1003.15
2017-11-13T13:40:47.802Z,1003.16
2017-11-13T13:41:48.759Z,1003.14
2017-11-13T13:42:48.114Z,1003.22
2017-11-13T13:43:49.413Z,1003.24
2017-11-13T13:44:49.033Z,1003.17
2017-11-13T13:45:49.105Z,1003.22
2017-11-13T13:46:49.682Z,1003.26
2017-11-13T13:47:47.056Z,1003.24
2017-11-13T13:48:47.016Z,1003.28
2017-11-13T13:49:47.242Z,1003.27
2017-11-13T13:50:47.256Z,1003.23
2017-11-13T13:51:46.983Z,1003.26
2017-11-13T13:52:46.949Z,1003.28
2017-11-13T13:53:46.939Z,1003.30
2017-11-13T13:54:48.589Z,1003.29
2017-11-13T13:55:47.014Z,1003.30
2017-11-13T14:38:17.318Z,1003.55
2017-11-13T14:39:16.009Z,1003.55
2017-11-13T14:40:15.901Z,1003.53
2017-11-13T14:41:16.342Z,1003.50
2017-11-13T14:42:15.933Z,1003.53
2017-11-13T14:43:15.795Z,1003.50
2017-11-13T14:44:15.793Z,1003.52
2017-11-13T14:45:15.723Z,1003.52
2017-11-13T14:46:15.702Z,1003.54
2017-11-13T14:47:15.831Z,1003.53
2017-11-13T14:48:15.765Z,1003.58
2017-11-13T14:49:15.681Z,1003.56
2017-11-13T14:50:17.718Z,1003.62
2017-11-13T14:51:15.784Z,1003.62
2017-11-13T14:52:15.623Z,1003.65
2017-11-13T14:53:15.589Z,1003.68
2017-11-13T14:54:15.966Z,1003.64
2017-11-13T14:55:16.015Z,1003.66
2017-11-13T14:56:15.736Z,1003.62
2017-11-13T14:57:15.746Z,1003.55
2017-11-13T14:58:15.735Z,1003.58
2017-11-13T14:59:18.449Z,1003.56
2017-11-13T15:00:16.470Z,1003.60
2017-11-13T15:01:17.513Z,1003.61
2017-11-13T15:02:15.929Z,1003.61
2017-11-13T15:03:15.454Z,1003.65
2017-11-13T15:04:16.448Z,1003.65
2017-11-13T15:05:15.413Z,1003.70
2017-11-13T15:06:17.333Z,1003.72
2017-11-13T15:07:15.434Z,1003.72
2017-11-13T15:08:15.413Z,1003.69